Time;durP1;ratioP1;P1;durP2;ratioP2;P2;SDS_P1;SDS_P2;PMS_P1;PMS_P2;Temp;Humidity;BMP_temperature;BMP_pressure;BME280_temperature;BME280_humidity;BME280_pressure;Samples;Min_cycle;Max_cycle;Signal;HPM_P1;HPM_P2
2021/07/02 00:01:41;;;;;;;43.03;23.30;;;;;;;14.64;100.00;100403.84;5063719;28;20211;-75
2021/07/02 00:04:08;;;;;;;34.03;22.23;;;;;;;14.63;100.00;100392.50;5063634;28;20203;-75
2021/07/02 00:06:35;;;;;;;43.27;23.50;;;;;;;14.56;100.00;100391.00;5062157;28;20723;-74
2021/07/02 00:09:01;;;;;;;44.17;22.30;;;;;;;14.59;100.00;100395.25;5063050;28;20220;-74
2021/07/02 00:11:27;;;;;;;51.43;25.40;;;;;;;14.61;100.00;100385.59;5062876;28;20206;-74
2021/07/02 00:13:54;;;;;;;41.63;24.67;;;;;;;14.58;100.00;100394.41;5063203;28;20209;-75
2021/07/02 00:16:20;;;;;;;33.10;23.37;;;;;;;14.53;100.00;100384.94;5063405;28;20221;-74
2021/07/02 00:18:48;;;;;;;47.80;23.40;;;;;;;14.57;100.00;100392.72;5063315;28;20241;-75
2021/07/02 00:21:14;;;;;;;40.37;23.00;;;;;;;14.50;100.00;100380.69;5063496;28;20203;-74
2021/07/02 00:23:40;;;;;;;32.53;22.13;;;;;;;14.48;100.00;100382.50;5062769;28;20209;-74
2021/07/02 00:26:07;;;;;;;37.03;22.40;;;;;;;14.53;100.00;100379.69;5063113;28;20765;-74
2021/07/02 00:28:33;;;;;;;34.63;22.17;;;;;;;14.52;100.00;100380.63;5061951;28;20229;-75
2021/07/02 00:30:59;;;;;;;43.53;21.80;;;;;;;14.60;100.00;100381.22;5063607;28;20505;-75
2021/07/02 00:33:26;;;;;;;30.13;21.00;;;;;;;14.59;100.00;100387.38;5063427;28;20242;-75
2021/07/02 00:35:53;;;;;;;33.80;21.77;;;;;;;14.56;100.00;100384.84;5062990;28;20263;-74
2021/07/02 00:38:20;;;;;;;43.70;22.70;;;;;;;14.57;100.00;100381.31;5063497;28;20267;-74
2021/07/02 00:40:46;;;;;;;38.43;22.07;;;;;;;14.46;100.00;100374.66;5062548;28;20205;-75
2021/07/02 00:43:13;;;;;;;37.77;22.23;;;;;;;14.41;100.00;100365.25;5062592;28;20206;-74
2021/07/02 00:45:39;;;;;;;37.97;22.63;;;;;;;14.40;100.00;100363.53;5062034;28;20640;-74
2021/07/02 00:48:06;;;;;;;32.13;22.97;;;;;;;14.39;100.00;100359.19;5062890;28;20687;-75
2021/07/02 00:50:33;;;;;;;39.37;21.97;;;;;;;14.38;100.00;100366.22;5062294;28;20206;-74
2021/07/02 00:53:01;;;;;;;37.33;22.47;;;;;;;14.37;100.00;100359.25;5061682;28;20643;-75
2021/07/02 00:55:28;;;;;;;36.57;22.97;;;;;;;14.37;100.00;100359.25;5061851;28;21115;-74
2021/07/02 00:57:55;;;;;;;41.30;21.93;;;;;;;14.38;100.00;100352.22;5061723;28;20685;-74
2021/07/02 01:00:21;;;;;;;34.07;21.60;;;;;;;14.39;100.00;100351.31;5062873;28;20216;-75
2021/07/02 01:02:48;;;;;;;32.77;20.67;;;;;;;14.43;100.00;100360.78;5061408;28;20210;-74
2021/07/02 01:05:14;;;;;;;35.27;21.30;;;;;;;14.43;100.00;100356.41;5062632;28;20206;-75
2021/07/02 01:07:41;;;;;;;32.80;21.70;;;;;;;14.46;100.00;100363.31;5061197;28;20274;-75
2021/07/02 01:10:14;;;;;;;35.20;21.07;;;;;;;14.39;100.00;100361.81;5062155;28;20227;-74
2021/07/02 01:12:41;;;;;;;33.37;20.93;;;;;;;14.43;100.00;100350.28;5061533;28;20205;-74
2021/07/02 01:15:19;;;;;;;36.00;21.20;;;;;;;14.44;100.00;100352.84;5061660;28;20556;-74
2021/07/02 01:17:45;;;;;;;30.73;20.10;;;;;;;14.51;100.00;100356.13;5060270;28;20236;-73
2021/07/02 01:20:12;;;;;;;32.57;20.30;;;;;;;14.55;100.00;100359.47;5062095;28;20259;-75
2021/07/02 01:22:40;;;;;;;30.30;19.23;;;;;;;14.52;100.00;100356.97;5060920;28;20210;-75
2021/07/02 01:25:07;;;;;;;29.93;19.90;;;;;;;14.52;100.00;100364.88;5061695;28;20213;-74
2021/07/02 01:27:34;;;;;;;22.53;18.43;;;;;;;14.49;100.00;100366.69;5061108;28;20647;-74
2021/07/02 01:30:01;;;;;;;28.60;18.90;;;;;;;14.48;100.00;100364.13;5061106;28;20214;-74
2021/07/02 01:32:27;;;;;;;27.17;18.43;;;;;;;14.55;100.00;100367.38;5061315;28;20199;-74
2021/07/02 01:34:53;;;;;;;26.47;18.53;;;;;;;14.54;100.00;100371.78;5061025;28;20229;-74
2021/07/02 01:37:20;;;;;;;28.53;18.73;;;;;;;14.54;100.00;100365.66;5062146;28;20233;-74
2021/07/02 01:39:47;;;;;;;27.03;19.07;;;;;;;14.55;100.00;100370.88;5060651;28;20648;-75
2021/07/02 01:42:14;;;;;;;26.23;19.47;;;;;;;14.43;100.00;100372.16;5061038;28;20754;-74
2021/07/02 01:44:41;;;;;;;29.53;20.70;;;;;;;14.44;100.00;100365.13;5061077;28;20656;-74
2021/07/02 01:47:07;;;;;;;28.07;20.17;;;;;;;14.49;100.00;100358.81;5061585;28;20275;-74
2021/07/02 01:49:34;;;;;;;30.53;20.07;;;;;;;14.49;100.00;100360.59;5061470;28;20252;-74
2021/07/02 01:52:00;;;;;;;32.30;22.10;;;;;;;14.44;100.00;100362.50;5060811;28;20218;-74
2021/07/02 01:54:26;;;;;;;29.90;21.73;;;;;;;14.47;100.00;100371.16;5061438;28;20204;-75
2021/07/02 01:56:54;;;;;;;30.97;21.60;;;;;;;14.44;100.00;100375.66;5061026;28;20229;-74
2021/07/02 01:59:21;;;;;;;31.80;20.27;;;;;;;14.43;100.00;100374.78;5060543;28;20206;-74
2021/07/02 02:01:48;;;;;;;29.70;20.90;;;;;;;14.43;100.00;100377.41;5061337;28;20206;-74
2021/07/02 02:04:15;;;;;;;37.80;21.57;;;;;;;14.45;100.00;100372.97;5060927;28;20673;-74
2021/07/02 02:06:42;;;;;;;27.83;20.40;;;;;;;14.42;100.00;100378.31;5060987;28;20716;-74
2021/07/02 02:09:08;;;;;;;23.63;18.80;;;;;;;14.53;100.00;100380.56;5060510;28;20304;-75
2021/07/02 02:11:35;;;;;;;23.33;18.97;;;;;;;14.46;100.00;100379.06;5060640;28;20279;-74
2021/07/02 02:14:03;;;;;;;31.50;20.00;;;;;;;14.51;100.00;100385.03;5061041;28;20251;-74
2021/07/02 02:16:29;;;;;;;30.37;18.27;;;;;;;14.52;100.00;100383.25;5060415;28;20244;-74
2021/07/02 02:18:56;;;;;;;25.87;19.40;;;;;;;14.48;100.00;100393.84;5061145;28;20206;-74
2021/07/02 02:21:22;;;;;;;28.17;19.70;;;;;;;14.48;100.00;100391.22;5060632;28;20205;-74
2021/07/02 02:23:49;;;;;;;29.87;19.53;;;;;;;14.49;100.00;100397.34;5061133;28;20902;-75
2021/07/02 02:26:15;;;;;;;24.00;18.77;;;;;;;14.52;100.00;100391.13;5061285;28;20272;-75
2021/07/02 02:28:41;;;;;;;27.10;19.33;;;;;;;14.49;100.00;100387.72;5061434;28;20229;-74
2021/07/02 02:31:09;;;;;;;34.77;20.23;;;;;;;14.47;100.00;100386.06;5065350;28;20525;-74
2021/07/02 02:33:35;;;;;;;25.00;20.23;;;;;;;14.46;100.00;100379.06;5065882;28;20210;-75
2021/07/02 02:36:03;;;;;;;38.07;21.17;;;;;;;14.41;100.00;100379.25;5066489;28;20611;-74
2021/07/02 02:38:29;;;;;;;26.07;20.03;;;;;;;14.45;100.00;100378.22;5065932;28;20262;-74
2021/07/02 02:40:56;;;;;;;29.50;21.47;;;;;;;14.41;100.00;100379.25;5065768;28;20267;-75
2021/07/02 02:43:22;;;;;;;24.13;21.10;;;;;;;14.43;100.00;100387.03;5065138;28;20206;-74
2021/07/02 02:45:48;;;;;;;34.03;21.20;;;;;;;14.50;100.00;100380.69;5064391;28;20749;-73
2021/07/02 02:48:16;;;;;;;35.97;22.77;;;;;;;14.48;100.00;100395.63;5065408;28;20226;-73
2021/07/02 02:50:42;;;;;;;34.13;21.97;;;;;;;14.52;100.00;100399.00;5064446;28;20607;-74
2021/07/02 02:53:09;;;;;;;26.90;21.07;;;;;;;14.56;100.00;100398.88;5064743;28;20213;-73
2021/07/02 02:55:35;;;;;;;34.37;20.83;;;;;;;14.60;100.00;100407.50;5064918;28;20202;-74
2021/07/02 02:58:01;;;;;;;32.07;22.27;;;;;;;14.55;100.00;100417.28;5064917;28;20734;-74
2021/07/02 03:00:28;;;;;;;34.70;23.13;;;;;;;14.53;100.00;100417.34;5064493;28;20680;-73
2021/07/02 03:02:54;;;;;;;41.27;24.13;;;;;;;14.42;100.00;100408.97;5064275;28;20201;-74
2021/07/02 03:05:22;;;;;;;44.33;24.67;;;;;;;14.43;100.00;100397.56;5065150;28;20244;-73
2021/07/02 03:07:52;;;;;;;45.87;24.97;;;;;;;14.47;100.00;100405.28;5064273;28;20229;-74
2021/07/02 03:10:18;;;;;;;42.03;23.60;;;;;;;14.44;100.00;100409.78;5064299;28;20284;-73
2021/07/02 03:12:45;;;;;;;43.97;24.87;;;;;;;14.44;100.00;100413.25;5063709;28;20213;-73
2021/07/02 03:15:13;;;;;;;48.57;25.63;;;;;;;14.45;100.00;100417.63;5064398;28;20583;-73
2021/07/02 03:17:39;;;;;;;45.30;25.20;;;;;;;14.44;100.00;100428.16;5064770;28;20251;-73
2021/07/02 03:20:08;;;;;;;46.93;26.40;;;;;;;14.46;100.00;100429.81;5064420;28;20209;-74
2021/07/02 03:22:35;;;;;;;48.63;24.97;;;;;;;14.51;100.00;100427.06;5064149;28;20254;-73
2021/07/02 03:25:02;;;;;;;51.63;26.57;;;;;;;14.50;100.00;100441.94;5064411;28;20237;-73
2021/07/02 03:27:28;;;;;;;58.77;28.13;;;;;;;14.52;100.00;100459.44;5064016;28;20226;-73
2021/07/02 03:29:54;;;;;;;56.63;27.37;;;;;;;14.42;100.00;100449.22;5064880;28;20480;-73
2021/07/02 03:32:21;;;;;;;47.80;26.63;;;;;;;14.39;100.00;100444.09;5064749;28;20244;-74
2021/07/02 03:34:48;;;;;;;56.03;28.57;;;;;;;14.37;100.00;100432.78;5064863;28;20239;-73
2021/07/02 03:37:16;;;;;;;53.20;26.17;;;;;;;14.45;100.00;100433.38;5064774;28;20336;-73
2021/07/02 03:39:43;;;;;;;44.33;26.23;;;;;;;14.48;100.00;100438.50;5064276;28;20217;-73
2021/07/02 03:42:10;;;;;;;45.07;25.57;;;;;;;14.51;100.00;100445.44;5063599;28;20213;-74
2021/07/02 03:44:37;;;;;;;47.37;27.00;;;;;;;14.48;100.00;100459.50;5064932;28;20202;-74
2021/07/02 03:47:03;;;;;;;53.27;27.73;;;;;;;14.42;100.00;100445.75;5064605;28;20465;-74
2021/07/02 03:49:30;;;;;;;62.63;28.83;;;;;;;14.40;100.00;100452.81;5064676;28;20282;-75
2021/07/02 03:51:56;;;;;;;44.87;26.83;;;;;;;14.40;100.00;100452.81;5064469;28;20253;-74
2021/07/02 03:54:23;;;;;;;45.10;26.67;;;;;;;14.38;100.00;100454.66;5064445;28;20251;-74
2021/07/02 03:59:31;;;;;;;50.03;27.23;;;;;;;14.40;100.00;100456.31;5062209;28;20225;-73
2021/07/02 04:01:57;;;;;;;53.67;29.57;;;;;;;14.33;100.00;100462.69;5064105;28;20621;-74
2021/07/02 04:04:23;;;;;;;54.60;28.63;;;;;;;14.29;100.00;100456.69;5064291;28;20279;-74
2021/07/02 04:06:50;;;;;;;44.87;27.13;;;;;;;14.24;100.00;100458.59;5064539;28;20230;-73
2021/07/02 04:09:17;;;;;;;51.47;27.00;;;;;;;14.32;100.00;100453.09;5064308;28;20225;-74
2021/07/02 04:11:43;;;;;;;42.63;26.00;;;;;;;14.39;100.00;100458.97;5063987;28;20684;-74
2021/07/02 04:14:11;;;;;;;43.07;25.83;;;;;;;14.35;100.00;100470.50;5063811;28;20448;-73
2021/07/02 04:16:38;;;;;;;47.87;25.70;;;;;;;14.39;100.00;100470.34;5063846;28;20780;-74
2021/07/02 04:19:05;;;;;;;53.57;26.43;;;;;;;14.38;100.00;100484.38;5064247;28;20209;-74
2021/07/02 04:21:31;;;;;;;40.37;25.77;;;;;;;14.36;100.00;100491.47;5063876;28;20208;-74
2021/07/02 04:23:58;;;;;;;42.03;26.13;;;;;;;14.38;100.00;100492.25;5063257;28;20214;-74
2021/07/02 04:26:24;;;;;;;53.23;25.73;;;;;;;14.44;100.00;100489.44;5064291;28;20229;-74
2021/07/02 04:28:50;;;;;;;44.77;25.33;;;;;;;14.55;100.00;100504.84;5063467;28;20226;-74
2021/07/02 04:31:18;;;;;;;43.50;26.17;;;;;;;14.56;100.00;100511.81;5063764;28;20319;-74
2021/07/02 04:33:45;;;;;;;40.03;24.67;;;;;;;14.63;99.80;100515.13;5063441;28;20209;-74
2021/07/02 04:36:11;;;;;;;47.60;27.80;;;;;;;14.58;99.44;100538.06;5063651;28;20226;-74
2021/07/02 04:38:37;;;;;;;46.77;27.47;;;;;;;14.64;99.36;100536.06;5063169;28;20215;-74
2021/07/02 04:41:04;;;;;;;49.37;25.97;;;;;;;14.69;99.01;100549.06;5063880;28;20631;-74
2021/07/02 04:43:30;;;;;;;34.90;26.50;;;;;;;14.59;99.09;100542.38;5062957;28;20751;-74
2021/07/02 04:45:56;;;;;;;40.97;26.43;;;;;;;14.52;99.19;100539.06;5063364;28;20596;-74
2021/07/02 04:48:24;;;;;;;39.27;24.83;;;;;;;14.59;99.39;100531.88;5063384;28;20262;-74
2021/07/02 04:50:50;;;;;;;37.60;24.80;;;;;;;14.61;99.33;100538.81;5063068;28;20290;-73
2021/07/02 04:53:18;;;;;;;50.77;25.07;;;;;;;14.59;99.04;100540.63;5062749;28;20668;-73
2021/07/02 04:55:44;;;;;;;46.17;26.13;;;;;;;14.57;98.96;100541.56;5063120;28;20217;-74
2021/07/02 04:58:11;;;;;;;43.60;24.77;;;;;;;14.57;99.35;100534.56;5062951;28;20252;-74
2021/07/02 05:00:38;;;;;;;49.47;26.43;;;;;;;14.59;99.68;100516.09;5063103;28;20206;-74
2021/07/02 05:03:04;;;;;;;39.13;24.03;;;;;;;14.53;99.41;100526.78;5062585;28;20244;-74
2021/07/02 05:05:33;;;;;;;39.20;24.63;;;;;;;14.49;99.23;100531.31;5063214;28;20214;-74
2021/07/02 05:08:00;;;;;;;41.33;24.87;;;;;;;14.48;99.16;100542.72;5063284;28;20649;-74
2021/07/02 05:10:26;;;;;;;46.23;24.47;;;;;;;14.47;99.54;100541.88;5063075;28;20263;-74
2021/07/02 05:12:53;;;;;;;37.57;24.93;;;;;;;14.56;99.48;100543.34;5062911;28;20627;-75
2021/07/02 05:15:19;;;;;;;40.37;23.10;;;;;;;14.56;99.09;100553.84;5062532;28;20677;-74
2021/07/02 05:17:46;;;;;;;43.60;24.10;;;;;;;14.63;98.94;100557.16;5062651;28;20229;-74
2021/07/02 05:20:13;;;;;;;43.27;24.50;;;;;;;14.61;98.63;100567.72;5062694;28;20311;-74
2021/07/02 05:22:40;;;;;;;37.97;24.00;;;;;;;14.58;98.37;100586.19;5062673;28;20206;-74
2021/07/02 05:25:08;;;;;;;34.97;24.10;;;;;;;14.58;98.15;100590.59;5062846;28;20209;-74
2021/07/02 05:27:34;;;;;;;38.70;23.13;;;;;;;14.66;97.89;100592.03;5062463;28;20229;-74
2021/07/02 05:30:01;;;;;;;42.63;23.50;;;;;;;14.64;98.01;100599.13;5062588;28;20227;-74
2021/07/02 05:32:27;;;;;;;37.00;23.23;;;;;;;14.68;97.62;100605.13;5061874;28;20206;-74
2021/07/02 05:34:53;;;;;;;34.67;21.83;;;;;;;14.68;97.51;100616.50;5062290;28;20201;-74
2021/07/02 05:37:20;;;;;;;32.17;22.53;;;;;;;14.66;97.56;100618.31;5062603;28;20708;-75
2021/07/02 05:39:47;;;;;;;31.47;20.67;;;;;;;14.77;97.51;100612.72;5062449;28;20707;-74
2021/07/02 05:42:14;;;;;;;35.13;22.37;;;;;;;14.72;97.26;100622.50;5062387;28;20620;-75
2021/07/02 05:44:40;;;;;;;29.27;20.87;;;;;;;14.77;97.33;100632.88;5062927;28;20210;-75
2021/07/02 05:47:06;;;;;;;38.03;21.00;;;;;;;14.85;97.34;100636.97;5062304;28;20229;-75
2021/07/02 05:49:33;;;;;;;25.27;18.70;;;;;;;14.92;97.03;100639.38;5062510;28;20583;-74
2021/07/02 05:51:59;;;;;;;33.40;20.67;;;;;;;14.80;96.35;100659.91;5062344;28;20215;-74
2021/07/02 05:54:26;;;;;;;30.77;20.93;;;;;;;14.85;96.52;100667.66;5062386;28;20264;-74
2021/07/02 05:56:53;;;;;;;25.47;20.03;;;;;;;14.94;96.32;100664.69;5062059;28;20275;-74
2021/07/02 05:59:19;;;;;;;30.43;19.40;;;;;;;14.89;95.92;100685.03;5062098;28;20202;-75
2021/07/02 06:01:46;;;;;;;24.87;18.97;;;;;;;14.92;95.90;100689.31;5062140;28;20262;-74
2021/07/02 06:04:12;;;;;;;26.60;19.47;;;;;;;14.79;95.94;100683.63;5061565;28;20252;-74
2021/07/02 06:06:39;;;;;;;30.83;20.23;;;;;;;14.66;96.71;100664.75;5062316;28;20234;-74
2021/07/02 06:09:05;;;;;;;27.60;20.00;;;;;;;14.70;96.59;100654.09;5062030;28;20726;-75
2021/07/02 06:11:31;;;;;;;30.53;19.17;;;;;;;14.76;96.62;100657.44;5062149;28;20513;-73
2021/07/02 06:13:59;;;;;;;31.00;20.00;;;;;;;14.77;96.25;100677.56;5061931;28;20210;-74
2021/07/02 06:16:25;;;;;;;26.70;19.03;;;;;;;14.66;96.03;100684.00;5062142;28;20586;-74
2021/07/02 06:18:52;;;;;;;24.33;18.33;;;;;;;14.74;96.02;100672.38;5062155;28;20258;-73
2021/07/02 06:21:18;;;;;;;24.60;18.67;;;;;;;14.72;96.04;100682.09;5062222;28;20853;-73
2021/07/02 06:23:44;;;;;;;23.63;19.50;;;;;;;14.70;95.89;100688.25;5062016;28;20207;-74
2021/07/02 06:26:11;;;;;;;24.90;18.43;;;;;;;14.61;95.84;100691.19;5061861;28;20793;-73
2021/07/02 06:28:38;;;;;;;22.43;19.27;;;;;;;14.60;96.16;100678.09;5062133;28;20206;-75
2021/07/02 06:31:05;;;;;;;22.80;19.73;;;;;;;14.62;96.46;100665.75;5061797;28;20206;-75
2021/07/02 06:33:32;;;;;;;30.57;19.20;;;;;;;14.64;96.61;100654.28;5061295;28;20279;-75
2021/07/02 06:35:58;;;;;;;23.03;19.10;;;;;;;14.77;96.64;100659.16;5060239;28;20524;-75
2021/07/02 06:38:25;;;;;;;23.93;18.13;;;;;;;14.80;96.01;100687.97;5059033;28;20239;-75
2021/07/02 06:40:52;;;;;;;28.73;18.57;;;;;;;14.89;95.16;100716.59;5060885;28;20556;-73
2021/07/02 06:43:18;;;;;;;20.50;18.40;;;;;;;14.87;94.84;100731.53;5060804;28;20684;-74
2021/07/02 06:45:45;;;;;;;28.90;19.97;;;;;;;14.86;94.84;100727.19;5061301;28;20561;-76
2021/07/02 06:48:12;;;;;;;25.13;19.97;;;;;;;14.68;94.18;100749.66;5061309;28;20627;-75
2021/07/02 06:50:43;;;;;;;28.70;20.43;;;;;;;14.70;94.82;100727.66;5061227;28;20728;-74
2021/07/02 06:53:09;;;;;;;32.03;19.00;;;;;;;14.81;94.81;100722.09;5060875;28;20210;-74
2021/07/02 06:55:36;;;;;;;26.40;19.53;;;;;;;14.86;94.36;100733.28;5060285;28;20210;-74
2021/07/02 06:58:04;;;;;;;24.70;20.03;;;;;;;14.66;94.98;100720.78;5060950;28;20222;-76
2021/07/02 07:00:31;;;;;;;26.33;19.57;;;;;;;14.62;95.58;100686.78;5061473;28;20266;-77
2021/07/02 07:02:57;;;;;;;21.10;19.00;;;;;;;14.67;95.17;100692.75;5061495;28;20203;-74
2021/07/02 07:05:25;;;;;;;22.13;18.83;;;;;;;14.72;95.23;100703.13;5061447;28;21210;-75
2021/07/02 07:07:51;;;;;;;21.20;19.27;;;;;;;14.72;94.96;100703.97;5061283;28;20228;-75
2021/07/02 07:10:17;;;;;;;27.40;19.27;;;;;;;14.83;95.29;100695.75;5061689;28;20627;-76
2021/07/02 07:12:44;;;;;;;21.37;18.80;;;;;;;14.88;94.56;100733.25;5061262;28;20206;-76
2021/07/02 07:15:12;;;;;;;27.27;18.67;;;;;;;14.80;94.36;100736.13;5061593;28;20213;-76
2021/07/02 07:17:38;;;;;;;20.80;17.23;;;;;;;14.77;94.51;100735.38;5064704;28;20700;-76
2021/07/02 07:20:05;;;;;;;19.57;15.53;;;;;;;14.86;94.50;100745.56;5065369;28;20201;-75
2021/07/02 07:22:33;;;;;;;17.40;15.70;;;;;;;14.69;93.04;100799.53;5065023;28;20197;-76
2021/07/02 07:25:00;;;;;;;19.03;16.50;;;;;;;14.60;94.01;100770.03;5064319;28;20683;-75
2021/07/02 07:27:26;;;;;;;21.13;15.13;;;;;;;14.59;94.05;100755.16;5064789;28;20288;-76
2021/07/02 07:29:53;;;;;;;17.33;15.40;;;;;;;14.66;94.18;100748.84;5064546;28;20279;-75
2021/07/02 07:32:20;;;;;;;17.13;15.43;;;;;;;14.72;94.06;100745.16;5064652;28;20625;-75
2021/07/02 07:34:49;;;;;;;18.07;16.23;;;;;;;14.78;94.19;100740.56;5064624;28;20206;-75
2021/07/02 07:37:18;;;;;;;17.10;15.37;;;;;;;14.91;94.33;100734.94;5064538;28;20232;-76
2021/07/02 07:39:46;;;;;;;17.33;14.57;;;;;;;14.94;94.03;100751.44;5064586;28;20213;-76
2021/07/02 07:42:13;;;;;;;17.70;15.33;;;;;;;14.94;93.76;100759.34;5064872;28;20448;-76
2021/07/02 07:44:39;;;;;;;18.10;15.20;;;;;;;14.97;94.00;100753.13;5065510;28;20255;-75
2021/07/02 07:47:06;;;;;;;15.37;13.73;;;;;;;14.89;93.52;100774.41;5065226;28;20232;-76
2021/07/02 07:49:32;;;;;;;16.10;14.53;;;;;;;15.00;93.07;100782.78;5064935;28;20609;-75
2021/07/02 07:52:10;;;;;;;17.73;13.87;;;;;;;15.01;92.20;100821.34;5063935;28;20206;-76
2021/07/02 07:54:37;;;;;;;18.43;12.57;;;;;;;14.96;91.38;100856.56;5064319;28;20734;-75
2021/07/02 07:57:05;;;;;;;13.83;12.53;;;;;;;15.09;91.56;100844.75;5063473;28;20222;-74
2021/07/02 07:59:33;;;;;;;17.07;13.20;;;;;;;15.23;90.55;100874.09;5064103;28;20252;-73
2021/07/02 08:01:59;;;;;;;14.83;12.50;;;;;;;15.34;90.74;100884.31;5063578;28;20202;-73
2021/07/02 08:04:26;;;;;;;16.67;12.77;;;;;;;15.32;90.33;100898.41;5063922;28;20255;-73
2021/07/02 08:06:52;;;;;;;15.07;12.53;;;;;;;15.27;90.26;100901.19;5063309;28;20279;-73
2021/07/02 08:09:20;;;;;;;13.40;12.30;;;;;;;15.31;89.23;100930.88;5063602;28;20229;-73
2021/07/02 08:11:47;;;;;;;18.03;13.20;;;;;;;15.24;89.25;100943.34;5063880;28;20259;-73
2021/07/02 08:14:15;;;;;;;14.73;12.67;;;;;;;15.39;90.21;100899.94;5063297;28;20206;-73
2021/07/02 08:16:41;;;;;;;13.57;12.33;;;;;;;15.60;90.00;100888.72;5063500;28;20226;-73
2021/07/02 08:19:08;;;;;;;17.97;13.83;;;;;;;15.60;89.36;100917.69;5063214;28;20213;-73
2021/07/02 08:21:35;;;;;;;13.63;11.70;;;;;;;15.78;89.42;100908.34;5063361;28;20201;-73
2021/07/02 08:24:01;;;;;;;15.00;13.33;;;;;;;15.73;89.07;100920.78;5063093;28;20206;-75
2021/07/02 08:26:28;;;;;;;14.07;12.73;;;;;;;15.79;88.05;100952.19;5062858;28;20264;-74
2021/07/02 08:31:39;;;;;;;13.97;11.90;;;;;;;15.86;87.81;100963.38;5063509;28;20855;-74
2021/07/02 08:34:06;;;;;;;15.17;10.80;;;;;;;15.96;87.16;100979.75;5061924;28;20683;-75
2021/07/02 08:36:32;;;;;;;14.03;11.30;;;;;;;16.01;87.18;100988.34;5063687;28;20230;-77
2021/07/02 08:38:59;;;;;;;11.47;10.27;;;;;;;15.99;85.65;101024.41;5063048;28;20753;-74
2021/07/02 08:41:25;;;;;;;15.37;10.70;;;;;;;16.03;85.68;101047.94;5063143;28;20680;-74
2021/07/02 08:43:52;;;;;;;11.83;10.23;;;;;;;16.02;84.70;101087.50;5063106;28;20206;-74
2021/07/02 08:46:21;;;;;;;14.60;11.37;;;;;;;16.08;84.67;101076.78;5062749;28;20230;-75
2021/07/02 08:48:50;;;;;;;13.13;11.70;;;;;;;16.05;84.73;101076.88;5063203;28;20210;-74
2021/07/02 08:51:18;;;;;;;13.57;10.80;;;;;;;16.06;84.92;101070.69;5062838;28;20229;-73
2021/07/02 08:53:45;;;;;;;11.40;10.40;;;;;;;16.15;84.33;101073.03;5062696;28;20210;-73
2021/07/02 08:56:11;;;;;;;12.43;11.03;;;;;;;16.23;84.68;101062.25;5062841;28;20295;-74
2021/07/02 08:58:38;;;;;;;12.07;10.90;;;;;;;16.30;84.25;101079.59;5063349;28;20210;-73
2021/07/02 09:01:07;;;;;;;15.20;11.40;;;;;;;16.31;83.52;101099.72;5063753;28;20201;-73
2021/07/02 09:03:36;;;;;;;12.47;11.27;;;;;;;16.36;84.08;101081.16;5063257;28;20237;-74
2021/07/02 09:06:17;;;;;;;11.80;10.97;;;;;;;16.56;84.35;101064.69;5064209;28;20209;-74
2021/07/02 09:09:01;;;;;;;11.27;10.37;;;;;;;16.43;82.62;101119.56;5064694;28;20399;-73
2021/07/02 09:11:31;;;;;;;11.00;10.00;;;;;;;16.57;82.87;101116.47;5063829;28;20315;-74
2021/07/02 09:13:58;;;;;;;11.23;10.00;;;;;;;16.63;81.91;101140.00;5062509;28;20230;-75
2021/07/02 09:16:28;;;;;;;11.27;10.13;;;;;;;16.65;82.95;101099.50;5062413;28;20295;-74
2021/07/02 09:18:55;;;;;;;10.73;9.73;;;;;;;16.74;81.56;101172.16;5062728;28;20240;-73
2021/07/02 09:21:31;;;;;;;9.90;9.00;;;;;;;16.81;81.62;101146.47;5062980;28;20256;-73
2021/07/02 09:23:59;;;;;;;13.00;9.70;;;;;;;16.90;81.17;101164.63;5062546;28;20214;-72
2021/07/02 09:26:34;;;;;;;10.87;9.97;;;;;;;16.87;81.04;101162.97;5062136;28;20774;-72
2021/07/02 09:29:20;;;;;;;10.47;9.43;;;;;;;17.12;81.16;101151.56;5062359;28;20696;-72
2021/07/02 09:31:57;;;;;;;13.53;11.03;;;;;;;16.91;80.78;101187.47;5062120;28;20589;-75
2021/07/02 09:34:24;;;;;;;11.70;10.70;;;;;;;16.91;81.40;101152.28;5062203;28;20296;-73
2021/07/02 09:36:52;;;;;;;10.77;9.87;;;;;;;16.93;80.30;101161.88;5062359;28;20230;-73
2021/07/02 09:39:28;;;;;;;11.40;10.40;;;;;;;16.84;81.50;101125.28;5061361;28;20279;-73
2021/07/02 09:41:54;;;;;;;14.30;10.77;;;;;;;16.91;81.80;101116.25;5061862;28;20881;-73
2021/07/02 09:44:21;;;;;;;14.80;11.53;;;;;;;17.10;81.37;101111.19;5061968;28;20207;-73
2021/07/02 09:46:47;;;;;;;12.17;10.93;;;;;;;17.06;80.96;101150.00;5061322;28;20229;-73
2021/07/02 09:49:24;;;;;;;12.10;10.97;;;;;;;17.07;80.01;101175.47;5060810;28;20976;-73
2021/07/02 09:51:52;;;;;;;10.77;9.73;;;;;;;17.32;79.87;101182.50;5061965;28;21324;-73
2021/07/02 09:54:19;;;;;;;10.60;9.53;;;;;;;17.14;78.80;101260.53;5062146;28;20215;-72
2021/07/02 09:56:45;;;;;;;11.03;9.87;;;;;;;17.13;79.54;101213.97;5061857;28;20233;-74
2021/07/02 09:59:15;;;;;;;10.40;9.50;;;;;;;17.17;80.17;101177.81;5061689;28;20207;-72
2021/07/02 10:01:42;;;;;;;10.70;9.57;;;;;;;17.27;79.53;101189.75;5062048;28;20533;-73
2021/07/02 10:04:10;;;;;;;11.27;10.27;;;;;;;17.39;80.16;101167.34;5061480;28;20240;-73
2021/07/02 10:06:37;;;;;;;12.27;11.17;;;;;;;17.37;80.88;101125.16;5061595;28;20233;-72
2021/07/02 10:09:06;;;;;;;10.77;9.77;;;;;;;17.39;80.07;101156.78;5061628;28;20198;-73
2021/07/02 10:11:34;;;;;;;10.93;10.03;;;;;;;17.11;80.08;101157.75;5061148;28;20240;-73
2021/07/02 10:14:01;;;;;;;12.10;9.80;;;;;;;17.23;81.33;101109.84;5061152;28;20470;-72
2021/07/02 10:16:30;;;;;;;13.17;10.30;;;;;;;17.45;81.59;101094.06;5061908;28;21263;-74
2021/07/02 10:18:59;;;;;;;13.07;10.10;;;;;;;17.38;80.55;101139.22;5062125;28;20218;-74
2021/07/02 10:21:26;;;;;;;10.20;9.30;;;;;;;17.16;80.35;101169.00;5061761;28;20208;-75
2021/07/02 10:23:56;;;;;;;11.67;10.50;;;;;;;17.01;80.97;101122.06;5061120;28;20215;-73
2021/07/02 10:26:26;;;;;;;12.87;10.27;;;;;;;16.91;82.06;101092.50;5061220;28;20251;-73
2021/07/02 10:28:53;;;;;;;11.77;9.73;;;;;;;17.12;83.26;101011.75;5061746;28;20214;-74
2021/07/02 10:31:20;;;;;;;16.83;11.23;;;;;;;17.17;80.92;101088.09;5061781;28;20227;-75
2021/07/02 10:33:48;;;;;;;11.87;9.53;;;;;;;17.34;80.66;101122.63;5061465;28;20273;-73
2021/07/02 10:36:17;;;;;;;10.93;10.00;;;;;;;17.50;79.78;101159.88;5061922;28;20266;-73
2021/07/02 10:38:45;;;;;;;10.27;9.33;;;;;;;17.58;79.36;101183.38;5061279;28;20213;-74
2021/07/02 10:41:13;;;;;;;10.07;9.10;;;;;;;17.85;80.08;101166.53;5061760;28;20291;-74
2021/07/02 10:44:04;;;;;;;10.87;9.70;;;;;;;17.64;78.95;101222.75;5061078;28;20209;-73
2021/07/02 10:46:31;;;;;;;9.23;7.93;;;;;;;17.70;78.33;101226.94;5061537;28;20229;-73
2021/07/02 10:49:02;;;;;;;8.47;7.67;;;;;;;17.70;78.59;101225.19;5061434;28;20661;-74
2021/07/02 10:51:40;;;;;;;6.73;6.20;;;;;;;17.97;77.79;101251.53;5064515;28;20817;-74
2021/07/02 10:54:29;;;;;;;6.90;6.33;;;;;;;18.04;76.75;101306.75;5064819;28;20243;-74
2021/07/02 10:57:12;;;;;;;7.77;6.60;;;;;;;18.14;76.60;101299.34;5064192;28;20223;-73
2021/07/02 11:00:05;;;;;;;6.97;6.37;;;;;;;18.07;77.21;101260.84;5064765;28;20207;-74
2021/07/02 11:02:31;;;;;;;7.27;6.67;;;;;;;18.05;76.42;101271.47;5064916;28;20617;-75
2021/07/02 11:04:59;;;;;;;7.17;6.47;;;;;;;18.28;75.97;101304.13;5064917;28;20211;-72
2021/07/02 11:07:42;;;;;;;8.37;7.53;;;;;;;18.44;75.20;101323.78;5065026;28;20220;-74
2021/07/02 11:10:10;;;;;;;8.23;7.03;;;;;;;18.42;75.08;101351.19;5064286;28;20694;-71
2021/07/02 11:12:57;;;;;;;7.97;7.27;;;;;;;18.20;74.15;101390.75;5063915;28;20686;-73
2021/07/02 11:15:25;;;;;;;7.57;6.87;;;;;;;18.12;76.18;101300.31;5064897;28;20219;-74